Metsaborg — PBFL — position and weather

sailwx.info

Track history (hours):
 
Tides and Currents Weather Stations Pressure Air Temp Water Temp Dewpoint Dewpoint Depression Visibility Wind Speed Wind Dir Waves Ship Positions

Metsaborg

Last reported at 2018-Apr-20 11:40 UTC. Time now 2018-Apr-25 14:25 UTC.
Position N 52°27' E 004°36'.

Length 9 m; draft 0.7 m.

Type: SAR. MMSI: 244150462.

Date/timePositionNaut miles runAvg speedWind from/ knotsBaromVisibWave heightAir tempDewpointWater temp
2018-Apr-20 11:40N 52°27' E 004°36'0 0.0
2018-Apr-20 11:30N 52°27' E 004°36'0 0.8
2018-Apr-20 11:00N 52°28' E 004°35'1 2.5
2018-Apr-20 10:30N 52°28' E 004°37'4 7.1
2018-Apr-20 10:01N 52°26' E 004°43'3 6.6
2018-Apr-20 09:30N 52°25' E 004°48'3 6.2
2018-Apr-20 09:00N 52°24' E 004°53'3 5.3
2018-Apr-20 08:30N 52°23' E 004°56'2 4.9
2018-Apr-20 08:00N 52°22' E 005°00'815.0
2018-Apr-20 07:30N 52°28' E 005°08'1120.6
2018-Apr-20 06:58N 52°38' E 005°05'0 0.0
2018-Apr-19 09:27N 52°38' E 005°05'0 0.0
2018-Apr-19 09:00N 52°38' E 005°05'0 0.0
2018-Apr-18 11:26N 52°38' E 005°05'  
2018-Apr-12 10:40N 52°38' E 005°05'0 0.0
2018-Apr-12 10:28N 52°38' E 005°05'0 0.0
2018-Apr-12 09:55N 52°38' E 005°05'0 0.0
2018-Apr-10 12:36N 52°38' E 005°05'0 0.0
2018-Apr-10 12:30N 52°38' E 005°05'0 0.0
2018-Apr-10 12:00N 52°38' E 005°05'  
Track history (hours):
 
Tides and Currents Weather Stations Pressure Air Temp Water Temp Dewpoint Dewpoint Depression Visibility Wind Speed Wind Dir Waves Ship Positions

Metsaborg

Last reported at 2018-Apr-20 11:40 UTC. Time now 2018-Apr-25 14:25 UTC.
Position N 52°27' E 004°36'.

Length 9 m; draft 0.7 m.

Type: SAR. MMSI: 244150462.

Date/timePositionNaut miles runAvg speedWind from/ knotsBaromVisibWave heightAir tempDewpointWater temp
2018-Apr-20 11:40N 52°27' E 004°36'0 0.0
2018-Apr-20 11:30N 52°27' E 004°36'0 0.8
2018-Apr-20 11:00N 52°28' E 004°35'1 2.5
2018-Apr-20 10:30N 52°28' E 004°37'4 7.1
2018-Apr-20 10:01N 52°26' E 004°43'3 6.6
2018-Apr-20 09:30N 52°25' E 004°48'3 6.2
2018-Apr-20 09:00N 52°24' E 004°53'3 5.3
2018-Apr-20 08:30N 52°23' E 004°56'2 4.9
2018-Apr-20 08:00N 52°22' E 005°00'815.0
2018-Apr-20 07:30N 52°28' E 005°08'1120.6
2018-Apr-20 06:58N 52°38' E 005°05'0 0.0
2018-Apr-19 09:27N 52°38' E 005°05'0 0.0
2018-Apr-19 09:00N 52°38' E 005°05'0 0.0
2018-Apr-18 11:26N 52°38' E 005°05'  
2018-Apr-12 10:40N 52°38' E 005°05'0 0.0
2018-Apr-12 10:28N 52°38' E 005°05'0 0.0
2018-Apr-12 09:55N 52°38' E 005°05'0 0.0
2018-Apr-10 12:36N 52°38' E 005°05'0 0.0
2018-Apr-10 12:30N 52°38' E 005°05'0 0.0
2018-Apr-10 12:00N 52°38' E 005°05'  

Dump ship's entire track history